KMLB

Melbourne International Airport

Melbourne, Florida, USA
METAR KMLB 151453Z 11007KT 10SM SCT027 31/24 A3012 RMK AO2 SLP200 T03060239 53010
Observed Flight Rules
Aug-15 @ 14:53 UTC (8 minutes ago) Visual Flight Rules
Wind Visibility Clouds
110° at 7 knots 10 miles
  • Scattered at 2,700' AGL
Temperatures Readings
Current 31°C / 88°F
Dewpoint 24°C / 75°F
Humidity 66%
Altimeter 30.12" Hg
Pressure 1020 hPa
Elevation 11
METAR KMLB 151453Z 11007KT 10SM SCT027 31/24 A3012 RMK AO2 SLP200 T03060239 53010
Observed Flight Rules
Aug-15 @ 14:53 UTC
(8 minutes ago)
VFR
Wind Visibility
110° at 7 knots 10 miles
Clouds
  • Scattered at 2,700' AGL
Temperature Dewpoint
31°C / 88°F 24°C / 75°F
Humidity Altimeter Pressure
66% 30.12" Hg 1020 hPa